createdAt,value
2023-05-18T00:01:16.967Z,100.00
2023-05-18T00:03:43.880Z,100.00
2023-05-18T00:06:10.970Z,100.00
2023-05-18T00:08:38.602Z,100.00
2023-05-18T00:11:07.384Z,100.00
2023-05-18T00:13:34.345Z,100.00
2023-05-18T00:16:01.290Z,100.00
2023-05-18T00:18:28.532Z,100.00
2023-05-18T00:20:59.121Z,100.00
2023-05-18T00:23:30.928Z,100.00
2023-05-18T00:26:02.169Z,100.00
2023-05-18T00:28:29.354Z,100.00
2023-05-18T00:30:56.465Z,100.00
2023-05-18T00:33:23.310Z,100.00
2023-05-18T00:35:50.021Z,100.00
2023-05-18T00:38:16.806Z,100.00
2023-05-18T00:40:44.046Z,100.00
2023-05-18T00:43:10.786Z,100.00
2023-05-18T00:45:37.498Z,100.00
2023-05-18T00:48:04.843Z,100.00
2023-05-18T00:50:31.968Z,100.00
2023-05-18T00:52:59.186Z,100.00
2023-05-18T00:55:28.112Z,100.00
2023-05-18T00:57:56.628Z,100.00
2023-05-18T01:00:24.341Z,100.00
2023-05-18T01:02:51.915Z,100.00
2023-05-18T01:05:20.273Z,100.00
2023-05-18T01:07:48.806Z,100.00
2023-05-18T01:10:17.469Z,100.00
2023-05-18T01:12:56.600Z,100.00
2023-05-18T01:15:37.363Z,100.00
2023-05-18T01:18:29.120Z,100.00
2023-05-18T01:20:57.643Z,100.00
2023-05-18T01:23:42.563Z,100.00
2023-05-18T01:26:30.168Z,100.00
2023-05-18T01:29:01.095Z,100.00
2023-05-18T01:31:28.315Z,100.00
2023-05-18T01:33:55.021Z,100.00
2023-05-18T01:36:21.872Z,100.00
2023-05-18T01:38:48.765Z,100.00
2023-05-18T01:41:26.884Z,100.00
2023-05-18T01:44:03.832Z,100.00
2023-05-18T01:47:08.332Z,100.00
2023-05-18T01:49:48.210Z,100.00
2023-05-18T01:52:27.575Z,100.00
2023-05-18T01:54:57.612Z,100.00
2023-05-18T01:57:27.336Z,100.00
2023-05-18T01:59:55.449Z,100.00
2023-05-18T02:02:22.251Z,100.00
2023-05-18T02:04:49.674Z,100.00
2023-05-18T02:07:16.514Z,100.00
2023-05-18T02:09:44.458Z,100.00
2023-05-18T02:12:11.788Z,100.00
2023-05-18T02:14:38.515Z,100.00
2023-05-18T02:17:07.246Z,100.00
2023-05-18T02:19:38.459Z,100.00
2023-05-18T02:22:07.024Z,100.00
2023-05-18T02:24:34.541Z,100.00
2023-05-18T02:27:01.619Z,100.00
2023-05-18T02:29:28.328Z,100.00
2023-05-18T02:31:55.046Z,100.00
2023-05-18T02:34:22.885Z,100.00
2023-05-18T02:36:49.603Z,100.00
2023-05-18T02:39:16.589Z,100.00
2023-05-18T02:41:43.229Z,100.00
2023-05-18T02:44:09.978Z,100.00
2023-05-18T02:46:36.615Z,100.00
2023-05-18T02:49:03.344Z,100.00
2023-05-18T02:51:31.542Z,100.00
2023-05-18T02:53:58.237Z,100.00
2023-05-18T02:56:24.969Z,100.00
2023-05-18T02:58:57.937Z,100.00
2023-05-18T03:01:28.399Z,100.00
2023-05-18T03:03:57.833Z,100.00
2023-05-18T03:06:26.727Z,100.00
2023-05-18T03:08:54.507Z,100.00
2023-05-18T03:11:24.944Z,100.00
2023-05-18T03:13:51.993Z,100.00
2023-05-18T03:16:18.934Z,100.00
2023-05-18T03:18:46.209Z,100.00
2023-05-18T03:21:13.850Z,100.00
2023-05-18T03:23:40.898Z,100.00
2023-05-18T03:26:11.595Z,100.00
2023-05-18T03:28:39.166Z,100.00
2023-05-18T03:31:06.121Z,100.00
2023-05-18T03:33:32.880Z,100.00
2023-05-18T03:36:04.495Z,100.00
2023-05-18T03:38:31.264Z,100.00
2023-05-18T03:40:58.000Z,100.00
2023-05-18T03:43:26.108Z,100.00
2023-05-18T03:45:53.605Z,100.00
2023-05-18T03:48:21.096Z,100.00
2023-05-18T03:50:48.906Z,100.00
2023-05-18T03:53:19.328Z,100.00
2023-05-18T03:55:46.621Z,100.00
2023-05-18T03:58:13.447Z,100.00
2023-05-18T04:00:40.602Z,100.00
2023-05-18T04:03:07.427Z,100.00
2023-05-18T04:05:34.345Z,100.00
2023-05-18T04:08:01.061Z,100.00
2023-05-18T04:10:27.853Z,100.00
2023-05-18T04:12:54.567Z,100.00
2023-05-18T04:15:21.391Z,100.00
2023-05-18T04:17:51.326Z,100.00
2023-05-18T04:20:18.656Z,100.00
2023-05-18T04:22:48.630Z,100.00
2023-05-18T04:25:16.207Z,100.00
2023-05-18T04:27:45.695Z,100.00
2023-05-18T04:30:13.366Z,100.00
2023-05-18T04:32:42.912Z,100.00
2023-05-18T04:35:11.717Z,100.00
2023-05-18T04:37:41.658Z,100.00
2023-05-18T04:40:14.197Z,100.00
2023-05-18T04:42:48.454Z,100.00
2023-05-18T04:45:19.633Z,100.00
2023-05-18T04:47:48.300Z,100.00
2023-05-18T04:50:19.086Z,100.00
2023-05-18T04:52:49.106Z,100.00
2023-05-18T04:55:28.709Z,100.00
2023-05-18T04:57:57.040Z,100.00
2023-05-18T05:00:31.661Z,100.00
2023-05-18T05:02:59.357Z,100.00
2023-05-18T05:05:27.123Z,100.00
2023-05-18T05:07:54.416Z,100.00
2023-05-18T05:10:21.669Z,100.00
2023-05-18T05:12:50.014Z,100.00
2023-05-18T05:15:17.365Z,100.00
2023-05-18T05:17:44.086Z,100.00
2023-05-18T05:20:11.410Z,100.00
2023-05-18T05:22:38.228Z,100.00
2023-05-18T05:25:06.325Z,100.00
2023-05-18T05:27:33.290Z,100.00
2023-05-18T05:29:59.932Z,100.00
2023-05-18T05:32:26.668Z,100.00
2023-05-18T05:34:53.416Z,100.00
2023-05-18T05:37:20.077Z,100.00
2023-05-18T05:39:46.795Z,100.00
2023-05-18T05:42:14.358Z,100.00
2023-05-18T05:44:41.175Z,100.00
2023-05-18T05:47:09.857Z,100.00
2023-05-18T05:49:36.742Z,100.00
2023-05-18T05:52:03.672Z,100.00
2023-05-18T05:54:30.643Z,100.00
2023-05-18T05:56:57.357Z,97.04
2023-05-18T05:59:23.989Z,97.62
2023-05-18T06:01:51.025Z,95.37
2023-05-18T06:04:17.765Z,94.23
2023-05-18T06:06:44.467Z,92.76
2023-05-18T06:09:11.151Z,91.38
2023-05-18T06:11:38.002Z,92.56
2023-05-18T06:14:04.749Z,88.63
2023-05-18T06:16:31.900Z,88.03
2023-05-18T06:18:58.764Z,87.77
2023-05-18T06:21:25.725Z,86.63
2023-05-18T06:23:52.394Z,88.35
2023-05-18T06:26:19.049Z,88.63
2023-05-18T06:28:45.887Z,85.04
2023-05-18T06:31:13.051Z,83.56
2023-05-18T06:33:40.102Z,85.75
2023-05-18T06:36:07.139Z,84.37
2023-05-18T06:38:33.871Z,84.48
2023-05-18T06:41:00.631Z,85.83
2023-05-18T06:43:28.476Z,87.66
2023-05-18T06:45:56.928Z,88.67
2023-05-18T06:48:27.160Z,89.05
2023-05-18T06:50:54.501Z,87.52
2023-05-18T06:53:22.261Z,87.52
2023-05-18T06:55:49.048Z,87.01
2023-05-18T06:58:15.855Z,87.76
2023-05-18T07:00:42.668Z,86.11
2023-05-18T07:03:09.516Z,86.79
2023-05-18T07:05:39.163Z,85.68
2023-05-18T07:08:07.433Z,85.86
2023-05-18T07:10:35.731Z,83.94
2023-05-18T07:13:02.482Z,85.94
2023-05-18T07:15:29.699Z,80.85
2023-05-18T07:17:56.799Z,81.11
2023-05-18T07:20:25.967Z,81.97
2023-05-18T07:22:55.288Z,81.78
2023-05-18T07:25:22.880Z,80.19
2023-05-18T07:27:52.246Z,79.04
2023-05-18T07:30:19.182Z,79.77
2023-05-18T07:32:46.077Z,77.63
2023-05-18T07:35:12.962Z,76.42
2023-05-18T07:37:39.747Z,75.51
2023-05-18T07:40:07.200Z,74.25
2023-05-18T07:42:34.188Z,75.85
2023-05-18T07:45:00.950Z,76.22
2023-05-18T07:47:27.649Z,74.42
2023-05-18T07:49:54.356Z,75.25
2023-05-18T07:52:21.045Z,72.88
2023-05-18T07:54:47.716Z,74.20
2023-05-18T07:57:14.459Z,75.60
2023-05-18T07:59:41.424Z,75.26
2023-05-18T08:02:08.229Z,74.01
2023-05-18T08:04:34.976Z,73.90
2023-05-18T08:07:02.094Z,73.38
2023-05-18T08:09:28.866Z,71.57
2023-05-18T08:11:55.823Z,71.70
2023-05-18T08:14:22.485Z,73.06
2023-05-18T08:16:49.387Z,71.25
2023-05-18T08:19:16.528Z,73.35
2023-05-18T08:21:43.569Z,71.78
2023-05-18T08:24:10.200Z,71.67
2023-05-18T08:26:37.213Z,73.28
2023-05-18T08:29:09.778Z,73.65
2023-05-18T08:31:37.799Z,73.95
2023-05-18T08:34:08.323Z,75.97
2023-05-18T08:36:36.209Z,74.76
2023-05-18T08:39:03.038Z,73.84
2023-05-18T08:41:34.535Z,74.03
2023-05-18T08:44:06.765Z,71.92
2023-05-18T08:46:42.786Z,70.08
2023-05-18T08:49:10.582Z,70.89
2023-05-18T08:51:38.019Z,71.04
2023-05-18T08:54:07.907Z,71.41
2023-05-18T08:56:35.777Z,72.18
2023-05-18T08:59:08.078Z,74.07
2023-05-18T09:01:35.402Z,74.21
2023-05-18T09:04:02.617Z,72.82
2023-05-18T09:06:29.450Z,72.62
2023-05-18T09:08:59.718Z,73.45
2023-05-18T09:11:28.025Z,74.60
2023-05-18T09:13:55.230Z,72.67
2023-05-18T09:16:22.002Z,72.04
2023-05-18T09:18:48.976Z,72.87
2023-05-18T09:21:15.901Z,74.60
2023-05-18T09:23:43.771Z,73.76
2023-05-18T09:26:11.391Z,73.62
2023-05-18T09:28:40.628Z,74.98
2023-05-18T09:31:17.013Z,73.61
2023-05-18T09:33:45.328Z,74.95
2023-05-18T09:36:12.321Z,76.81
2023-05-18T09:38:43.238Z,77.61
2023-05-18T09:41:12.611Z,76.18
2023-05-18T09:43:40.053Z,78.25
2023-05-18T09:46:11.537Z,78.61
2023-05-18T09:48:42.181Z,79.72
2023-05-18T09:51:11.186Z,79.71
2023-05-18T09:53:37.853Z,78.73
2023-05-18T09:56:07.223Z,75.85
2023-05-18T09:58:39.110Z,76.81
2023-05-18T10:01:06.087Z,76.22
2023-05-18T10:03:41.710Z,75.35
2023-05-18T10:06:10.025Z,73.75
2023-05-18T10:08:38.042Z,73.03
2023-05-18T10:11:06.016Z,74.32
2023-05-18T10:13:34.082Z,74.92
2023-05-18T10:16:07.449Z,72.99
2023-05-18T10:18:38.447Z,73.94
2023-05-18T10:21:10.114Z,74.86
2023-05-18T10:23:37.359Z,72.73
2023-05-18T10:26:09.987Z,73.00
2023-05-18T10:28:45.298Z,71.54
2023-05-18T10:31:15.509Z,71.68
2023-05-18T10:33:44.768Z,72.93
2023-05-18T10:36:12.486Z,72.27
2023-05-18T10:38:43.613Z,71.98
2023-05-18T10:41:12.308Z,71.27
2023-05-18T10:43:41.102Z,72.17
2023-05-18T10:46:09.721Z,74.42
2023-05-18T10:48:39.246Z,73.86
2023-05-18T10:51:08.453Z,72.92
2023-05-18T10:53:36.555Z,72.00
2023-05-18T10:56:03.795Z,72.11
2023-05-18T10:58:32.074Z,74.59
2023-05-18T11:01:01.325Z,73.33
2023-05-18T11:03:28.628Z,73.52
2023-05-18T11:06:08.890Z,73.62
2023-05-18T11:08:44.551Z,73.53
2023-05-18T11:11:11.230Z,73.06
2023-05-18T11:13:43.490Z,73.65
2023-05-18T11:16:10.309Z,72.73
2023-05-18T11:18:42.367Z,73.64
2023-05-18T11:21:22.146Z,75.45
2023-05-18T11:24:16.056Z,77.51
2023-05-18T11:26:44.745Z,78.41
2023-05-18T11:29:18.670Z,79.72
2023-05-18T11:31:53.945Z,79.77
2023-05-18T11:34:40.982Z,79.83
2023-05-18T11:37:10.089Z,78.92
2023-05-18T11:39:44.779Z,78.14
2023-05-18T11:42:18.728Z,78.89
2023-05-18T11:44:53.166Z,78.61
2023-05-18T11:47:19.955Z,79.91
2023-05-18T11:49:51.235Z,75.92
2023-05-18T11:52:22.836Z,76.64
2023-05-18T11:54:52.944Z,77.34
2023-05-18T11:57:23.898Z,77.27
2023-05-18T11:59:56.091Z,77.05
2023-05-18T12:02:26.923Z,75.32
2023-05-18T12:04:55.083Z,75.11
2023-05-18T12:07:22.688Z,75.48
2023-05-18T12:09:49.659Z,76.22
2023-05-18T12:12:20.141Z,74.47
2023-05-18T12:14:54.014Z,76.35
2023-05-18T12:17:20.714Z,76.85
2023-05-18T12:19:49.100Z,76.77
2023-05-18T12:22:16.094Z,78.88
2023-05-18T12:24:44.211Z,77.06
2023-05-18T12:27:12.170Z,77.30
2023-05-18T12:29:42.935Z,79.40
2023-05-18T12:32:12.068Z,79.51
2023-05-18T12:34:39.758Z,78.76
2023-05-18T12:37:08.025Z,73.75
2023-05-18T12:39:35.236Z,76.04
2023-05-18T12:42:17.600Z,78.55
2023-05-18T12:44:45.365Z,76.01
2023-05-18T12:47:13.710Z,74.67
2023-05-18T12:49:43.114Z,74.87
2023-05-18T12:52:11.836Z,74.59
2023-05-18T12:54:55.588Z,76.67
2023-05-18T12:57:25.654Z,77.98
2023-05-18T12:59:55.196Z,79.81
2023-05-18T13:02:28.965Z,80.17
2023-05-18T13:05:05.121Z,81.19
2023-05-18T13:07:31.799Z,79.88
2023-05-18T13:10:12.349Z,81.15
2023-05-18T13:12:41.184Z,79.63
2023-05-18T13:15:12.134Z,79.50
2023-05-18T13:17:39.043Z,79.22
2023-05-18T13:20:15.666Z,79.23
2023-05-18T13:22:43.542Z,78.61
2023-05-18T13:25:10.511Z,78.94
2023-05-18T13:27:38.238Z,77.56
2023-05-18T13:30:05.515Z,78.50
2023-05-18T13:32:33.664Z,75.69
2023-05-18T13:35:00.514Z,76.93
2023-05-18T13:37:27.262Z,75.54
2023-05-18T13:39:53.860Z,75.47
2023-05-18T13:42:21.654Z,75.07
2023-05-18T13:44:48.321Z,76.95
2023-05-18T13:47:15.052Z,73.42
2023-05-18T13:49:41.661Z,74.33
2023-05-18T13:52:08.359Z,74.73
2023-05-18T13:54:35.027Z,74.49
2023-05-18T13:57:02.363Z,76.89
2023-05-18T13:59:29.128Z,78.41
2023-05-18T14:01:55.915Z,78.07
2023-05-18T14:04:22.577Z,80.38
2023-05-18T14:06:49.586Z,81.61
2023-05-18T14:09:16.288Z,81.56
2023-05-18T14:11:42.910Z,82.79
2023-05-18T14:14:09.498Z,81.48
2023-05-18T14:16:36.980Z,81.76
2023-05-18T14:19:03.684Z,81.20
2023-05-18T14:21:31.277Z,81.13
2023-05-18T14:23:57.908Z,80.68
2023-05-18T14:26:24.582Z,82.70
2023-05-18T14:28:52.344Z,83.79
2023-05-18T14:31:18.996Z,85.44
2023-05-18T14:33:45.734Z,88.09
2023-05-18T14:36:12.369Z,88.94
2023-05-18T14:38:38.992Z,90.02
2023-05-18T14:41:05.857Z,88.14
2023-05-18T14:43:32.489Z,89.76
2023-05-18T14:46:08.040Z,90.60
2023-05-18T14:48:35.586Z,90.23
2023-05-18T14:51:02.209Z,89.78
2023-05-18T14:53:28.849Z,89.69
2023-05-18T14:55:55.578Z,88.37
2023-05-18T14:58:22.345Z,89.77
2023-05-18T15:00:48.991Z,90.13
2023-05-18T15:03:16.033Z,90.18
2023-05-18T15:05:44.394Z,89.82
2023-05-18T15:08:11.147Z,90.56
2023-05-18T15:10:37.744Z,89.60
2023-05-18T15:13:04.836Z,89.27
2023-05-18T15:15:31.624Z,87.73
2023-05-18T15:17:58.359Z,88.15
2023-05-18T15:20:25.190Z,90.20
2023-05-18T15:22:51.869Z,90.32
2023-05-18T15:25:18.733Z,91.12
2023-05-18T15:27:45.459Z,90.15
2023-05-18T15:30:12.777Z,91.16
2023-05-18T15:32:40.062Z,92.02
2023-05-18T15:35:07.559Z,89.88
2023-05-18T15:37:34.180Z,91.70
2023-05-18T15:40:01.012Z,92.53
2023-05-18T15:42:27.637Z,92.85
2023-05-18T15:44:54.258Z,91.49
2023-05-18T15:47:21.283Z,88.39
2023-05-18T15:49:47.970Z,88.75
2023-05-18T15:52:14.579Z,88.38
2023-05-18T15:54:41.299Z,87.77
2023-05-18T15:57:08.125Z,87.92
2023-05-18T15:59:34.766Z,88.97
2023-05-18T16:02:01.414Z,88.57
2023-05-18T16:04:28.121Z,89.63
2023-05-18T16:06:55.239Z,89.71
2023-05-18T16:09:22.089Z,90.90
2023-05-18T16:11:49.373Z,91.26
2023-05-18T16:14:16.053Z,91.67
2023-05-18T16:16:42.741Z,91.87
2023-05-18T16:19:09.518Z,92.81
2023-05-18T16:21:36.258Z,92.16
2023-05-18T16:24:03.004Z,91.06
2023-05-18T16:26:29.668Z,90.88
2023-05-18T16:28:56.573Z,90.30
2023-05-18T16:31:23.215Z,90.48
2023-05-18T16:33:49.966Z,90.52
2023-05-18T16:36:16.653Z,87.31
2023-05-18T16:38:43.328Z,84.74
2023-05-18T16:41:10.928Z,85.36
2023-05-18T16:43:37.581Z,85.05
2023-05-18T16:46:04.304Z,84.46
2023-05-18T16:48:30.982Z,84.02
2023-05-18T16:50:57.731Z,83.11
2023-05-18T16:53:24.337Z,83.59
2023-05-18T16:55:51.021Z,83.68
2023-05-18T16:58:17.677Z,83.53
2023-05-18T17:00:44.319Z,83.91
2023-05-18T17:03:11.046Z,83.35
2023-05-18T17:05:37.760Z,83.39
2023-05-18T17:08:04.861Z,83.98
2023-05-18T17:10:34.581Z,84.57
2023-05-18T17:13:01.292Z,84.98
2023-05-18T17:15:28.381Z,85.02
2023-05-18T17:17:55.014Z,85.10
2023-05-18T17:20:21.785Z,85.30
2023-05-18T17:22:48.545Z,85.45
2023-05-18T17:25:15.245Z,84.10
2023-05-18T17:27:42.004Z,83.87
2023-05-18T17:30:09.076Z,84.41
2023-05-18T17:32:35.733Z,83.40
2023-05-18T17:35:03.129Z,83.47
2023-05-18T17:37:29.785Z,82.55
2023-05-18T17:39:56.444Z,83.31
2023-05-18T17:42:23.141Z,83.83
2023-05-18T17:44:49.773Z,83.04
2023-05-18T17:47:17.494Z,84.61
2023-05-18T17:49:44.296Z,84.92
2023-05-18T17:52:11.175Z,85.99
2023-05-18T17:54:37.827Z,84.98
2023-05-18T17:57:04.596Z,84.74
2023-05-18T17:59:31.366Z,84.29
2023-05-18T18:01:58.037Z,85.36
2023-05-18T18:04:24.777Z,86.98
2023-05-18T18:06:54.378Z,87.21
2023-05-18T18:09:22.245Z,89.74
2023-05-18T18:11:49.212Z,90.05
2023-05-18T18:14:17.347Z,90.21
2023-05-18T18:16:44.443Z,90.16
2023-05-18T18:19:11.192Z,91.13
2023-05-18T18:21:37.976Z,91.88
2023-05-18T18:24:05.074Z,92.66
2023-05-18T18:26:32.259Z,92.75
2023-05-18T18:28:58.912Z,92.34
2023-05-18T18:31:25.858Z,92.82
2023-05-18T18:33:52.580Z,93.02
2023-05-18T18:36:19.232Z,92.18
2023-05-18T18:38:46.104Z,92.75
2023-05-18T18:41:15.038Z,93.20
2023-05-18T18:43:41.652Z,93.24
2023-05-18T18:46:08.362Z,95.53
2023-05-18T18:48:35.083Z,94.57
2023-05-18T18:51:01.773Z,94.48
2023-05-18T18:53:28.398Z,94.32
2023-05-18T18:55:56.663Z,95.24
2023-05-18T18:58:24.383Z,96.13
2023-05-18T19:00:51.114Z,95.66
2023-05-18T19:03:17.732Z,95.60
2023-05-18T19:05:44.449Z,95.12
2023-05-18T19:08:11.104Z,95.79
2023-05-18T19:10:37.877Z,96.73
2023-05-18T19:13:07.255Z,96.05
2023-05-18T19:15:35.212Z,96.95
2023-05-18T19:18:03.106Z,96.70
2023-05-18T19:20:29.833Z,96.25
2023-05-18T19:22:56.570Z,97.34
2023-05-18T19:25:26.441Z,96.71
2023-05-18T19:27:53.580Z,95.31
2023-05-18T19:30:21.609Z,95.82
2023-05-18T19:32:49.885Z,94.85
2023-05-18T19:35:18.947Z,94.59
2023-05-18T19:37:46.941Z,95.23
2023-05-18T19:40:13.669Z,95.46
2023-05-18T19:42:40.403Z,94.59
2023-05-18T19:45:07.436Z,94.77
2023-05-18T19:47:34.344Z,96.31
2023-05-18T19:50:01.247Z,95.70
2023-05-18T19:52:27.871Z,95.05
2023-05-18T19:54:54.556Z,95.55
2023-05-18T19:57:21.441Z,95.43
2023-05-18T19:59:48.139Z,95.32
2023-05-18T20:02:14.816Z,94.81
2023-05-18T20:04:43.100Z,95.02
2023-05-18T20:07:09.994Z,94.40
2023-05-18T20:09:36.863Z,93.48
2023-05-18T20:12:03.796Z,94.33
2023-05-18T20:14:30.683Z,94.82
2023-05-18T20:17:00.308Z,95.15
2023-05-18T20:19:27.732Z,95.05
2023-05-18T20:21:54.563Z,95.76
2023-05-18T20:24:21.504Z,96.01
2023-05-18T20:26:48.135Z,96.38
2023-05-18T20:29:14.746Z,96.23
2023-05-18T20:31:41.517Z,95.90
2023-05-18T20:34:08.378Z,95.73
2023-05-18T20:36:35.989Z,96.64
2023-05-18T20:39:02.747Z,96.77
2023-05-18T20:41:29.707Z,96.93
2023-05-18T20:43:57.391Z,96.40
2023-05-18T20:46:25.105Z,96.28
2023-05-18T20:48:55.373Z,95.59
2023-05-18T20:51:23.316Z,95.22
2023-05-18T20:53:50.170Z,94.15
2023-05-18T20:56:18.141Z,94.16
2023-05-18T20:58:48.825Z,92.46
2023-05-18T21:01:18.921Z,90.85
2023-05-18T21:03:46.069Z,90.31
2023-05-18T21:06:14.104Z,88.90
2023-05-18T21:08:41.333Z,87.62
2023-05-18T21:11:07.934Z,87.01
2023-05-18T21:13:36.814Z,86.11
2023-05-18T21:16:06.506Z,85.51
2023-05-18T21:18:34.384Z,85.55
2023-05-18T21:21:02.200Z,85.33
2023-05-18T21:23:29.003Z,84.16
2023-05-18T21:25:56.885Z,84.67
2023-05-18T21:28:25.003Z,85.01
2023-05-18T21:30:52.681Z,84.94
2023-05-18T21:33:19.813Z,84.22
2023-05-18T21:35:46.628Z,83.28
2023-05-18T21:38:13.493Z,83.10
2023-05-18T21:40:43.590Z,82.47
2023-05-18T21:43:10.772Z,84.01
2023-05-18T21:45:37.782Z,85.53
2023-05-18T21:48:04.852Z,85.63
2023-05-18T21:50:34.641Z,87.38
2023-05-18T21:53:04.961Z,86.23
2023-05-18T21:55:32.049Z,85.39
2023-05-18T21:57:58.885Z,86.78
2023-05-18T22:00:26.135Z,87.77
2023-05-18T22:02:52.949Z,88.02
2023-05-18T22:05:19.778Z,88.05
2023-05-18T22:07:46.423Z,88.89
2023-05-18T22:10:13.102Z,89.17
2023-05-18T22:12:41.858Z,90.31
2023-05-18T22:15:10.448Z,91.15
2023-05-18T22:17:37.270Z,90.70
2023-05-18T22:20:06.517Z,89.80
2023-05-18T22:22:33.214Z,89.43
2023-05-18T22:24:59.818Z,89.83
2023-05-18T22:27:26.757Z,88.65
2023-05-18T22:29:53.371Z,87.83
2023-05-18T22:32:21.186Z,87.46
2023-05-18T22:34:47.988Z,86.84
2023-05-18T22:37:14.630Z,86.33
2023-05-18T22:39:41.355Z,85.91
2023-05-18T22:42:08.032Z,85.88
2023-05-18T22:44:34.645Z,84.54
2023-05-18T22:47:01.298Z,84.47
2023-05-18T22:49:27.867Z,83.30
2023-05-18T22:51:54.442Z,83.34
2023-05-18T22:54:21.743Z,83.31
2023-05-18T22:56:48.312Z,84.02
2023-05-18T22:59:14.918Z,82.75
2023-05-18T23:01:41.619Z,82.43
2023-05-18T23:04:08.334Z,82.51
2023-05-18T23:06:35.008Z,81.79
2023-05-18T23:09:01.787Z,81.60
2023-05-18T23:11:28.654Z,81.12
2023-05-18T23:13:55.498Z,81.46
2023-05-18T23:16:24.107Z,80.82
2023-05-18T23:18:53.673Z,80.13
2023-05-18T23:21:21.750Z,81.41
2023-05-18T23:23:48.382Z,81.33
2023-05-18T23:26:15.082Z,80.40
2023-05-18T23:28:41.763Z,80.86
2023-05-18T23:31:08.389Z,81.88
2023-05-18T23:33:35.555Z,80.81
2023-05-18T23:36:03.987Z,80.96
2023-05-18T23:38:35.122Z,80.66
2023-05-18T23:41:04.222Z,81.50
2023-05-18T23:43:31.164Z,81.57
2023-05-18T23:45:59.708Z,80.59
2023-05-18T23:48:27.649Z,80.68
2023-05-18T23:51:02.449Z,81.68
2023-05-18T23:53:32.326Z,83.16
2023-05-18T23:56:00.065Z,85.13
2023-05-18T23:58:32.151Z,86.11
